createdAt,value
2023-03-10T00:00:38.557Z,15.37
2023-03-10T00:03:05.663Z,15.70
2023-03-10T00:05:32.536Z,10.90
2023-03-10T00:07:59.374Z,10.87
2023-03-10T00:10:26.439Z,11.90
2023-03-10T00:12:53.435Z,12.87
2023-03-10T00:15:20.331Z,10.77
2023-03-10T00:17:50.308Z,14.80
2023-03-10T00:20:17.275Z,11.43
2023-03-10T00:22:44.257Z,14.60
2023-03-10T00:25:11.371Z,12.00
2023-03-10T00:27:38.622Z,12.90
2023-03-10T00:30:06.091Z,9.67
2023-03-10T00:32:36.047Z,10.27
2023-03-10T00:35:05.280Z,11.80
2023-03-10T00:37:32.203Z,11.70
2023-03-10T00:39:59.148Z,10.33
2023-03-10T00:42:27.385Z,12.07
2023-03-10T00:44:54.219Z,10.93
2023-03-10T00:47:22.759Z,8.90
2023-03-10T00:49:50.852Z,10.13
2023-03-10T00:52:17.863Z,12.43
2023-03-10T00:54:44.859Z,9.67
2023-03-10T00:57:11.687Z,9.83
2023-03-10T00:59:49.909Z,9.07
2023-03-10T01:02:19.097Z,11.10
2023-03-10T01:04:47.073Z,10.37
2023-03-10T01:07:13.931Z,10.23
2023-03-10T01:09:40.769Z,12.00
2023-03-10T01:12:08.223Z,8.93
2023-03-10T01:14:35.189Z,10.27
2023-03-10T01:17:04.058Z,9.40
2023-03-10T01:19:31.252Z,10.10
2023-03-10T01:21:58.009Z,10.70
2023-03-10T01:24:25.016Z,11.83
2023-03-10T01:26:51.801Z,11.20
2023-03-10T01:29:18.691Z,11.73
2023-03-10T01:31:45.730Z,9.73
2023-03-10T01:34:12.856Z,9.83
2023-03-10T01:36:42.309Z,10.83
2023-03-10T01:39:09.698Z,12.40
2023-03-10T01:41:43.101Z,10.63
2023-03-10T01:44:19.985Z,10.60
2023-03-10T01:46:52.197Z,11.97
2023-03-10T01:49:40.017Z,12.57
2023-03-10T01:52:21.325Z,11.47
2023-03-10T01:55:11.126Z,10.53
2023-03-10T01:57:44.062Z,13.97
2023-03-10T02:00:16.229Z,11.90
2023-03-10T02:03:19.818Z,13.80
2023-03-10T02:05:51.870Z,9.03
2023-03-10T02:08:20.484Z,8.23
2023-03-10T02:10:48.757Z,11.07
2023-03-10T02:13:17.075Z,10.37
2023-03-10T02:15:44.719Z,11.93
2023-03-10T02:18:15.113Z,9.20
2023-03-10T02:21:07.755Z,10.90
2023-03-10T02:24:02.058Z,10.17
2023-03-10T02:26:59.489Z,9.47
2023-03-10T02:29:32.737Z,13.97
2023-03-10T02:32:01.455Z,11.60
2023-03-10T02:34:28.636Z,9.93
2023-03-10T02:36:55.784Z,10.03
2023-03-10T02:39:22.739Z,14.23
2023-03-10T02:41:50.378Z,9.47
2023-03-10T02:44:21.592Z,12.23
2023-03-10T02:46:49.105Z,7.10
2023-03-10T02:49:19.414Z,14.93
2023-03-10T02:51:47.725Z,13.93
2023-03-10T02:54:17.655Z,11.07
2023-03-10T02:56:45.450Z,10.17
2023-03-10T02:59:14.919Z,11.57
2023-03-10T03:01:46.635Z,12.17
2023-03-10T03:04:13.770Z,12.43
2023-03-10T03:06:41.112Z,11.80
2023-03-10T03:09:08.517Z,10.27
2023-03-10T03:11:36.061Z,11.90
2023-03-10T03:14:05.101Z,11.60
2023-03-10T03:16:32.288Z,8.77
2023-03-10T03:19:03.099Z,14.20
2023-03-10T03:21:31.722Z,10.93
2023-03-10T03:23:59.407Z,10.77
2023-03-10T03:26:27.059Z,12.10
2023-03-10T03:29:02.254Z,8.77
2023-03-10T03:31:32.834Z,8.47
2023-03-10T03:34:08.430Z,10.57
2023-03-10T03:36:35.509Z,10.27
2023-03-10T03:39:03.628Z,11.03
2023-03-10T03:41:32.014Z,11.23
2023-03-10T03:43:59.268Z,11.83
2023-03-10T03:46:26.795Z,8.73
2023-03-10T03:48:53.814Z,10.27
2023-03-10T03:51:21.091Z,9.70
2023-03-10T03:53:48.099Z,10.57
2023-03-10T03:56:15.154Z,9.33
2023-03-10T03:58:44.551Z,12.70
2023-03-10T04:01:12.819Z,9.83
2023-03-10T04:03:44.389Z,7.53
2023-03-10T04:06:14.726Z,8.53
2023-03-10T04:08:42.270Z,10.10
2023-03-10T04:11:09.459Z,8.83
2023-03-10T04:13:40.004Z,6.47
2023-03-10T04:16:08.138Z,8.30
2023-03-10T04:18:37.578Z,10.07
2023-03-10T04:21:05.323Z,10.57
2023-03-10T04:23:33.125Z,10.23
2023-03-10T04:26:00.294Z,10.37
2023-03-10T04:28:29.454Z,7.67
2023-03-10T04:30:56.631Z,9.03
2023-03-10T04:33:27.193Z,11.33
2023-03-10T04:35:54.639Z,8.43
2023-03-10T04:38:23.731Z,8.30
2023-03-10T04:40:56.171Z,7.17
2023-03-10T04:43:27.026Z,6.47
2023-03-10T04:45:55.413Z,9.67
2023-03-10T04:48:23.770Z,8.27
2023-03-10T04:51:01.721Z,9.70
2023-03-10T04:53:32.951Z,10.37
2023-03-10T04:56:01.691Z,10.67
2023-03-10T04:58:30.354Z,8.97
2023-03-10T05:01:03.159Z,12.40
2023-03-10T05:03:34.416Z,11.37
2023-03-10T05:06:01.336Z,16.73
2023-03-10T05:08:29.376Z,11.03
2023-03-10T05:10:56.574Z,10.83
2023-03-10T05:13:23.609Z,16.50
2023-03-10T05:15:50.700Z,6.63
2023-03-10T05:18:17.606Z,10.63
2023-03-10T05:20:44.416Z,9.03
2023-03-10T05:23:11.335Z,9.87
2023-03-10T05:25:40.026Z,9.50
2023-03-10T05:28:06.793Z,14.97
2023-03-10T05:30:33.721Z,8.80
2023-03-10T05:33:00.892Z,8.67
2023-03-10T05:35:27.725Z,15.77
2023-03-10T05:37:54.529Z,11.77
2023-03-10T05:40:22.422Z,9.30
2023-03-10T05:42:50.111Z,10.13
2023-03-10T05:45:18.721Z,13.53
2023-03-10T05:47:48.457Z,14.80
2023-03-10T05:50:18.113Z,11.47
2023-03-10T05:52:45.435Z,11.17
2023-03-10T05:55:16.132Z,13.47
2023-03-10T05:57:43.569Z,12.07
2023-03-10T06:00:12.407Z,12.90
2023-03-10T06:02:45.724Z,9.60
2023-03-10T06:05:13.631Z,12.77
2023-03-10T06:07:40.727Z,14.63
2023-03-10T06:10:08.260Z,12.90
2023-03-10T06:12:35.240Z,13.70
2023-03-10T06:15:02.064Z,16.83
2023-03-10T06:17:28.998Z,12.43
2023-03-10T06:19:56.036Z,12.17
2023-03-10T06:22:22.801Z,12.47
2023-03-10T06:24:49.587Z,9.97
2023-03-10T06:27:16.407Z,10.80
2023-03-10T06:29:43.222Z,9.47
2023-03-10T06:32:10.065Z,13.90
2023-03-10T06:34:36.970Z,11.23
2023-03-10T06:37:03.733Z,9.73
2023-03-10T06:39:30.508Z,11.57
2023-03-10T06:41:57.643Z,12.53
2023-03-10T06:44:24.618Z,13.67
2023-03-10T06:46:51.482Z,8.93
2023-03-10T06:49:18.190Z,15.63
2023-03-10T06:51:45.013Z,10.93
2023-03-10T06:54:11.894Z,13.33
2023-03-10T06:56:38.724Z,10.83
2023-03-10T06:59:05.749Z,9.03
2023-03-10T07:01:33.812Z,9.53
2023-03-10T07:04:01.603Z,14.87
2023-03-10T07:06:28.531Z,9.60
2023-03-10T07:08:56.093Z,13.57
2023-03-10T07:11:24.629Z,7.43
2023-03-10T07:13:52.070Z,10.97
2023-03-10T07:16:19.256Z,15.07
2023-03-10T07:18:46.155Z,11.53
2023-03-10T07:21:18.172Z,9.97
2023-03-10T07:23:45.096Z,8.23
2023-03-10T07:26:14.613Z,9.40
2023-03-10T07:28:41.818Z,9.23
2023-03-10T07:31:12.310Z,9.47
2023-03-10T07:33:39.572Z,12.60
2023-03-10T07:36:08.915Z,11.43
2023-03-10T07:38:35.838Z,11.97
2023-03-10T07:41:07.733Z,11.40
2023-03-10T07:43:34.689Z,10.03
2023-03-10T07:46:06.550Z,9.90
2023-03-10T07:48:33.485Z,11.13
2023-03-10T07:51:01.044Z,14.73
2023-03-10T07:53:28.993Z,11.67
2023-03-10T07:55:55.825Z,7.73
2023-03-10T07:58:24.266Z,10.90
2023-03-10T08:00:56.224Z,7.87
2023-03-10T08:03:24.308Z,13.63
2023-03-10T08:05:51.989Z,9.77
2023-03-10T08:08:18.939Z,9.37
2023-03-10T08:10:46.306Z,9.50
2023-03-10T08:13:13.827Z,8.53
2023-03-10T08:15:40.752Z,7.30
2023-03-10T08:18:08.531Z,9.33
2023-03-10T08:20:36.896Z,10.07
2023-03-10T08:23:04.220Z,8.27
2023-03-10T08:25:31.325Z,10.40
2023-03-10T08:27:58.259Z,11.47
2023-03-10T08:30:25.097Z,12.43
2023-03-10T08:32:51.968Z,9.63
2023-03-10T08:35:18.960Z,8.37
2023-03-10T08:37:46.171Z,12.03
2023-03-10T08:40:14.982Z,7.73
2023-03-10T08:42:41.832Z,8.90
2023-03-10T08:45:09.062Z,9.60
2023-03-10T08:47:36.407Z,17.67
2023-03-10T08:50:03.946Z,6.90
2023-03-10T08:52:31.004Z,10.77
2023-03-10T08:54:59.832Z,9.63
2023-03-10T08:57:26.833Z,6.90
2023-03-10T08:59:54.073Z,8.33
2023-03-10T09:02:22.187Z,9.00
2023-03-10T09:04:49.863Z,9.13
2023-03-10T09:07:17.522Z,6.30
2023-03-10T09:09:44.596Z,8.00
2023-03-10T09:12:12.332Z,7.83
2023-03-10T09:14:39.162Z,7.87
2023-03-10T09:17:06.211Z,8.73
2023-03-10T09:19:32.972Z,15.80
2023-03-10T09:22:00.157Z,9.97
2023-03-10T09:24:27.001Z,12.60
2023-03-10T09:26:55.919Z,12.43
2023-03-10T09:29:36.427Z,7.93
2023-03-10T09:32:09.158Z,9.90
2023-03-10T09:34:36.203Z,12.00
2023-03-10T09:37:03.174Z,8.23
2023-03-10T09:39:30.001Z,7.83
2023-03-10T09:42:25.536Z,7.37
2023-03-10T09:45:25.882Z,8.20
2023-03-10T09:48:12.236Z,6.77
2023-03-10T09:50:48.568Z,6.83
2023-03-10T09:53:40.427Z,7.20
2023-03-10T09:56:13.074Z,8.80
2023-03-10T09:58:45.390Z,7.13
2023-03-10T10:01:19.030Z,5.23
2023-03-10T10:03:53.958Z,5.43
2023-03-10T10:06:36.877Z,7.73
2023-03-10T10:09:22.553Z,4.30
2023-03-10T10:11:49.558Z,5.53
2023-03-10T10:14:29.353Z,6.73
2023-03-10T10:17:22.181Z,7.03
2023-03-10T10:19:50.883Z,5.83
2023-03-10T10:22:30.853Z,11.13
2023-03-10T10:25:10.341Z,5.00
2023-03-10T10:27:38.800Z,4.87
2023-03-10T10:30:41.297Z,7.87
2023-03-10T10:33:10.472Z,4.10
2023-03-10T10:35:57.352Z,6.33
2023-03-10T10:38:30.248Z,5.00
2023-03-10T10:41:07.295Z,3.53
2023-03-10T10:43:45.852Z,5.63
2023-03-10T10:46:16.003Z,4.67
2023-03-10T10:48:46.174Z,6.60
2023-03-10T10:51:29.261Z,4.60
2023-03-10T10:54:04.399Z,6.07
2023-03-10T10:56:31.430Z,3.13
2023-03-10T10:59:11.639Z,5.00
2023-03-10T11:01:56.281Z,6.87
2023-03-10T11:04:26.427Z,4.23
2023-03-10T11:07:07.542Z,6.07
2023-03-10T11:09:34.375Z,5.73
2023-03-10T11:12:21.299Z,5.50
2023-03-10T11:14:57.828Z,7.27
2023-03-10T11:17:46.470Z,9.73
2023-03-10T11:20:42.048Z,5.73
2023-03-10T11:23:30.657Z,5.97
2023-03-10T11:26:22.494Z,6.80
2023-03-10T11:28:59.376Z,4.37
2023-03-10T11:31:52.484Z,4.93
2023-03-10T11:34:32.753Z,11.23
2023-03-10T11:37:02.777Z,6.10
2023-03-10T11:40:07.683Z,8.10
2023-03-10T11:42:48.290Z,5.77
2023-03-10T11:45:36.712Z,5.67
2023-03-10T11:48:19.896Z,4.80
2023-03-10T11:51:01.628Z,6.00
2023-03-10T11:53:54.289Z,9.47
2023-03-10T11:56:23.379Z,6.67
2023-03-10T11:58:53.276Z,6.17
2023-03-10T12:01:26.187Z,5.63
2023-03-10T12:03:52.937Z,6.70
2023-03-10T12:06:34.965Z,5.90
2023-03-10T12:09:03.177Z,7.77
2023-03-10T12:11:30.910Z,6.67
2023-03-10T12:14:01.836Z,3.63
2023-03-10T12:16:36.711Z,5.37
2023-03-10T12:19:06.071Z,4.80
2023-03-10T12:21:33.651Z,6.50
2023-03-10T12:24:03.216Z,4.07
2023-03-10T12:26:38.921Z,4.47
2023-03-10T12:29:20.939Z,4.27
2023-03-10T12:31:51.444Z,3.83
2023-03-10T12:34:31.710Z,7.37
2023-03-10T12:37:06.513Z,4.63
2023-03-10T12:39:38.434Z,5.57
2023-03-10T12:42:30.474Z,4.00
2023-03-10T12:45:06.253Z,5.03
2023-03-10T12:47:55.014Z,5.50
2023-03-10T12:50:55.089Z,3.97
2023-03-10T12:53:47.414Z,3.80
2023-03-10T12:56:14.303Z,4.37
2023-03-10T12:58:57.094Z,6.10
2023-03-10T13:01:31.109Z,4.83
2023-03-10T13:03:58.803Z,4.17
2023-03-10T13:06:39.515Z,4.07
2023-03-10T13:09:18.359Z,4.17
2023-03-10T13:11:52.592Z,3.63
2023-03-10T13:14:24.896Z,6.80
2023-03-10T13:16:56.904Z,5.50
2023-03-10T13:19:26.389Z,5.80
2023-03-10T13:21:53.579Z,7.00
2023-03-10T13:24:30.872Z,4.80
2023-03-10T13:27:13.802Z,5.17
2023-03-10T13:29:53.421Z,4.77
2023-03-10T13:32:20.462Z,6.27
2023-03-10T13:34:47.285Z,8.73
2023-03-10T13:37:14.087Z,6.33
2023-03-10T13:39:41.209Z,7.63
2023-03-10T13:42:43.906Z,8.67
2023-03-10T13:45:22.715Z,10.20
2023-03-10T13:47:51.746Z,10.43
2023-03-10T13:50:18.977Z,10.27
2023-03-10T13:52:57.780Z,10.13
2023-03-10T13:55:25.134Z,11.43
2023-03-10T13:57:53.155Z,11.13
2023-03-10T14:00:22.846Z,8.00
2023-03-10T14:02:51.952Z,9.03
2023-03-10T14:05:54.467Z,9.97
2023-03-10T14:08:31.040Z,11.77
2023-03-10T14:11:22.723Z,9.63
2023-03-10T14:13:49.969Z,10.50
2023-03-10T14:16:16.949Z,10.00
2023-03-10T14:18:44.252Z,12.40
2023-03-10T14:21:25.070Z,7.93
2023-03-10T14:23:53.672Z,8.97
2023-03-10T14:26:20.522Z,9.67
2023-03-10T14:28:47.561Z,11.57
2023-03-10T14:31:21.363Z,10.03
2023-03-10T14:33:48.666Z,12.80
2023-03-10T14:36:15.742Z,12.37
2023-03-10T14:38:45.476Z,11.90
2023-03-10T14:41:14.506Z,12.80
2023-03-10T14:43:42.558Z,10.37
2023-03-10T14:46:12.511Z,13.00
2023-03-10T14:48:41.902Z,13.83
2023-03-10T14:51:22.522Z,12.60
2023-03-10T14:53:55.895Z,12.23
2023-03-10T14:56:23.077Z,15.10
2023-03-10T14:58:55.735Z,7.30
2023-03-10T15:01:23.027Z,7.90
2023-03-10T15:03:50.373Z,5.27
2023-03-10T15:06:19.675Z,8.10
2023-03-10T15:08:46.828Z,4.63
2023-03-10T15:11:15.883Z,4.07
2023-03-10T15:13:44.254Z,6.00
2023-03-10T15:16:16.896Z,5.83
2023-03-10T15:18:43.991Z,7.97
2023-03-10T15:21:11.535Z,7.00
2023-03-10T15:23:38.697Z,5.67
2023-03-10T15:26:09.641Z,7.10
2023-03-10T15:28:37.606Z,4.90
2023-03-10T15:31:05.808Z,5.80
2023-03-10T15:33:33.351Z,8.50
2023-03-10T15:36:00.888Z,11.70
2023-03-10T15:38:31.231Z,9.60
2023-03-10T15:41:06.193Z,12.87
2023-03-10T15:43:33.735Z,13.10
2023-03-10T15:46:06.768Z,8.10
2023-03-10T15:48:34.799Z,10.60
2023-03-10T15:51:02.340Z,11.63
2023-03-10T15:53:29.732Z,8.90
2023-03-10T15:55:59.847Z,10.10
2023-03-10T15:58:27.772Z,8.80
2023-03-10T16:00:54.803Z,10.30
2023-03-10T16:03:21.994Z,11.23
2023-03-10T16:05:49.487Z,9.47
2023-03-10T16:08:19.055Z,10.10
2023-03-10T16:10:53.789Z,5.83
2023-03-10T16:13:22.890Z,11.40
2023-03-10T16:15:52.049Z,7.83
2023-03-10T16:18:19.050Z,6.10
2023-03-10T16:20:54.373Z,8.07
2023-03-10T16:23:22.248Z,8.27
2023-03-10T16:26:11.053Z,6.97
2023-03-10T16:28:43.254Z,5.37
2023-03-10T16:31:12.365Z,5.77
2023-03-10T16:33:42.492Z,5.20
2023-03-10T16:36:14.754Z,4.87
2023-03-10T16:38:42.039Z,3.73
2023-03-10T16:41:10.640Z,5.67
2023-03-10T16:43:38.439Z,1.63
2023-03-10T16:46:08.588Z,1.00
2023-03-10T16:48:39.049Z,1.67
2023-03-10T16:51:19.723Z,1.73
2023-03-10T16:53:47.532Z,1.50
2023-03-10T16:56:14.864Z,2.73
2023-03-10T16:58:42.145Z,1.33
2023-03-10T17:01:09.148Z,4.50
2023-03-10T17:03:39.700Z,3.07
2023-03-10T17:06:12.305Z,3.47
2023-03-10T17:08:41.296Z,0.90
2023-03-10T17:11:18.023Z,1.00
2023-03-10T17:13:47.284Z,2.60
2023-03-10T17:16:15.797Z,0.70
2023-03-10T17:18:43.851Z,1.97
2023-03-10T17:21:16.245Z,3.10
2023-03-10T17:23:46.750Z,2.27
2023-03-10T17:26:14.903Z,4.97
2023-03-10T17:28:43.681Z,4.20
2023-03-10T17:31:14.291Z,1.77
2023-03-10T17:33:42.607Z,1.63
2023-03-10T17:36:15.770Z,1.83
2023-03-10T17:38:43.069Z,1.47
2023-03-10T17:41:12.378Z,2.07
2023-03-10T17:43:39.649Z,3.13
2023-03-10T17:46:13.285Z,2.17
2023-03-10T17:48:43.621Z,1.30
2023-03-10T17:51:18.810Z,1.37
2023-03-10T17:53:46.210Z,1.10
2023-03-10T17:56:14.420Z,1.40
2023-03-10T17:58:47.066Z,2.50
2023-03-10T18:01:17.779Z,2.03
2023-03-10T18:03:47.932Z,1.40
2023-03-10T18:06:22.424Z,1.80
2023-03-10T18:08:50.522Z,3.83
2023-03-10T18:11:24.871Z,5.10
2023-03-10T18:14:05.162Z,11.60
2023-03-10T18:16:47.171Z,5.83
2023-03-10T18:19:22.791Z,6.07
2023-03-10T18:21:53.717Z,3.87
2023-03-10T18:24:21.040Z,4.47
2023-03-10T18:26:48.171Z,4.90
2023-03-10T18:29:16.745Z,3.50
2023-03-10T18:31:43.756Z,6.73
2023-03-10T18:34:13.833Z,4.70
2023-03-10T18:36:46.825Z,1.83
2023-03-10T18:39:13.945Z,3.17
2023-03-10T18:41:41.124Z,3.10
2023-03-10T18:44:08.045Z,2.47
2023-03-10T18:46:35.044Z,4.10
2023-03-10T18:49:02.470Z,5.00
2023-03-10T18:52:02.797Z,4.23
2023-03-10T18:54:41.606Z,3.50
2023-03-10T18:57:23.338Z,2.47
2023-03-10T18:59:51.803Z,5.30
2023-03-10T19:02:19.026Z,3.53
2023-03-10T19:04:47.917Z,4.40
2023-03-10T19:07:17.658Z,4.17
2023-03-10T19:09:44.940Z,5.20
2023-03-10T19:12:14.915Z,4.23
2023-03-10T19:14:45.769Z,4.10
2023-03-10T19:17:12.803Z,4.67
2023-03-10T19:19:43.003Z,6.30
2023-03-10T19:22:13.685Z,8.20
2023-03-10T19:24:41.810Z,7.30
2023-03-10T19:27:09.124Z,4.93
2023-03-10T19:29:36.384Z,13.27
2023-03-10T19:32:12.299Z,6.13
2023-03-10T19:34:39.347Z,12.23
2023-03-10T19:37:08.035Z,7.40
2023-03-10T19:39:35.043Z,16.33
2023-03-10T19:42:01.871Z,9.30
2023-03-10T19:44:28.869Z,9.70
2023-03-10T19:46:59.117Z,8.87
2023-03-10T19:49:26.683Z,6.20
2023-03-10T19:51:56.841Z,9.00
2023-03-10T19:54:24.000Z,7.70
2023-03-10T19:56:50.978Z,5.93
2023-03-10T19:59:18.169Z,11.57
2023-03-10T20:01:48.806Z,5.50
2023-03-10T20:04:24.266Z,5.80
2023-03-10T20:06:51.942Z,7.83
2023-03-10T20:09:19.042Z,4.17
2023-03-10T20:11:46.199Z,5.27
2023-03-10T20:14:12.976Z,6.57
2023-03-10T20:16:40.150Z,8.27
2023-03-10T20:19:07.177Z,5.90
2023-03-10T20:21:34.250Z,8.73
2023-03-10T20:24:01.685Z,3.00
2023-03-10T20:26:29.107Z,6.63
2023-03-10T20:28:56.133Z,8.43
2023-03-10T20:31:28.432Z,2.60
2023-03-10T20:33:55.676Z,8.70
2023-03-10T20:36:22.789Z,8.17
2023-03-10T20:38:51.197Z,6.83
2023-03-10T20:41:19.426Z,10.23
2023-03-10T20:43:48.010Z,7.40
2023-03-10T20:46:19.314Z,3.87
2023-03-10T20:48:50.681Z,7.87
2023-03-10T20:51:19.155Z,7.93
2023-03-10T20:53:46.404Z,3.40
2023-03-10T20:56:14.385Z,9.13
2023-03-10T20:58:42.921Z,10.13
2023-03-10T21:01:18.842Z,12.83
2023-03-10T21:03:45.778Z,2.83
2023-03-10T21:06:13.154Z,4.70
2023-03-10T21:08:40.935Z,7.43
2023-03-10T21:11:07.781Z,10.57
2023-03-10T21:13:34.647Z,4.90
2023-03-10T21:16:01.839Z,6.83
2023-03-10T21:18:29.043Z,3.70
2023-03-10T21:20:56.130Z,7.77
2023-03-10T21:23:26.998Z,8.60
2023-03-10T21:25:53.845Z,9.30
2023-03-10T21:28:20.776Z,14.00
2023-03-10T21:30:47.722Z,9.47
2023-03-10T21:33:14.783Z,6.60
2023-03-10T21:35:43.230Z,10.70
2023-03-10T21:38:11.301Z,10.30
2023-03-10T21:40:41.053Z,9.43
2023-03-10T21:43:07.950Z,7.83
2023-03-10T21:45:37.347Z,7.70
2023-03-10T21:48:04.895Z,9.77
2023-03-10T21:50:32.262Z,3.10
2023-03-10T21:53:00.331Z,7.43
2023-03-10T21:55:29.323Z,8.90
2023-03-10T21:57:56.329Z,7.93
2023-03-10T22:00:24.339Z,6.73
2023-03-10T22:02:52.617Z,4.50
2023-03-10T22:05:20.411Z,7.10
2023-03-10T22:07:49.014Z,5.87
2023-03-10T22:10:18.323Z,5.17
2023-03-10T22:12:45.687Z,3.50
2023-03-10T22:15:19.456Z,5.90
2023-03-10T22:17:50.291Z,5.00
2023-03-10T22:20:20.737Z,6.17
2023-03-10T22:22:48.423Z,6.60
2023-03-10T22:25:16.215Z,7.00
2023-03-10T22:27:44.814Z,4.43
2023-03-10T22:30:14.128Z,9.53
2023-03-10T22:32:46.678Z,4.27
2023-03-10T22:35:13.951Z,6.10
2023-03-10T22:37:42.041Z,7.63
2023-03-10T22:40:13.004Z,8.57
2023-03-10T22:42:40.334Z,8.90
2023-03-10T22:45:16.544Z,5.93
2023-03-10T22:47:43.530Z,19.90
2023-03-10T22:50:16.693Z,5.87
2023-03-10T22:52:45.842Z,7.70
2023-03-10T22:55:20.974Z,7.47
2023-03-10T22:57:47.850Z,4.40
2023-03-10T23:00:19.741Z,10.50
2023-03-10T23:02:52.393Z,8.50
2023-03-10T23:05:22.506Z,3.70
2023-03-10T23:07:57.890Z,4.23
2023-03-10T23:10:27.568Z,6.43
2023-03-10T23:12:55.173Z,6.77
2023-03-10T23:15:26.109Z,8.40
2023-03-10T23:17:56.538Z,7.57
2023-03-10T23:20:27.531Z,3.63
2023-03-10T23:22:57.140Z,4.20
2023-03-10T23:25:33.373Z,5.43
2023-03-10T23:28:04.613Z,6.43
2023-03-10T23:30:31.721Z,6.70
2023-03-10T23:32:58.839Z,7.77
2023-03-10T23:35:29.114Z,4.20
2023-03-10T23:37:56.864Z,4.40
2023-03-10T23:40:27.013Z,5.17
2023-03-10T23:42:55.999Z,4.37
2023-03-10T23:45:24.342Z,2.20
2023-03-10T23:47:51.944Z,6.97
2023-03-10T23:50:25.890Z,5.67
2023-03-10T23:52:53.641Z,4.70
2023-03-10T23:55:24.039Z,4.93
2023-03-10T23:57:51.487Z,4.40
